General R Fierro Villalobos International Airport
MMCU : now visible

Airfield :











YOU CAN JOIN US ON...

 
LOGIN :

Register | Disclaimer

   EN    FR    IT 

 









Legend :    VFR   Marginal VFR   IFR   Intensive IFR   Very Intensive IFR
Visi :
Ceiling :
>= 8 km
>= 3000ft
5 to 8 km
1000 to 3000 ft
1500m to 5 km
500 to 1000 ft
800 to 1500m
200 to 500 ft
< 800m
< 200 ft
Symbols :   Thunderstorms  Fog  Heavy snow  Heavy precipitations  Wind > 20 kt






- Airport Elevation : 4462 ft
- IATA code : CUU


MMCU - General R Fierro Villalobos International

CURRENT METAR :
  • 172140Z 09014KT 10SM FEW030 33/04 A3009 RMK 8/100

EXPIRED METARs :
  • 172040Z 09009KT 10SM FEW030 31/07 A3011 RMK SLP086 57018 960 8/100
  • 171941Z 15006KT 10SM FEW030 30/07 A3013 RMK 8/100

TAF TAF MMCU
Valid from the 17 at 18:00 until the 18 at 18:00 UTC


171709Z 1718/1818 07010KT P6SM SKC
FM180300 07005KT P6SM SCT030
FM181200 00000KT P6SM SCT200
MMFR FIR / North America



MET'MAP, your aeronautical weather chart ! - Copyright ORBIFLY December 2007 - Disclaimer

ORBIFLY MET'MAP TEAM :

Programming & Development : Alexandra Zaïnal
Concept & original design : Baudouin d'Aumeries
Assistance for programming : Marc-Olivier Méhu
Technical & hardware support : Manuel Goepfert

Contact : metmap@orbifly.com




SOURCES & CREDITS :

   NOAA       Earth
Advisory